createdAt,value
2019-04-06T00:02:27.885Z,34.60
2019-04-06T00:04:59.626Z,34.80
2019-04-06T00:07:32.551Z,37.27
2019-04-06T00:10:04.231Z,36.40
2019-04-06T00:12:35.943Z,36.60
2019-04-06T00:15:08.429Z,34.30
2019-04-06T00:17:39.997Z,34.43
2019-04-06T00:20:12.290Z,35.60
2019-04-06T00:22:43.717Z,37.73
2019-04-06T00:25:15.675Z,35.60
2019-04-06T00:27:47.722Z,35.57
2019-04-06T00:30:19.842Z,34.47
2019-04-06T00:32:56.480Z,35.57
2019-04-06T00:35:27.988Z,36.33
2019-04-06T00:37:59.777Z,36.63
2019-04-06T00:40:31.477Z,35.33
2019-04-06T00:43:02.880Z,35.73
2019-04-06T00:45:34.468Z,35.53
2019-04-06T00:48:06.436Z,36.73
2019-04-06T00:50:38.242Z,38.23
2019-04-06T00:53:09.675Z,36.33
2019-04-06T00:55:41.830Z,38.93
2019-04-06T00:58:13.945Z,37.53
2019-04-06T01:00:45.267Z,36.00
2019-04-06T01:03:16.757Z,35.90
2019-04-06T01:05:48.156Z,34.77
2019-04-06T01:08:19.093Z,37.97
2019-04-06T01:10:50.509Z,35.30
2019-04-06T01:13:22.078Z,35.27
2019-04-06T01:15:54.028Z,38.30
2019-04-06T01:18:25.764Z,36.73
2019-04-06T01:20:57.290Z,36.93
2019-04-06T01:23:29.433Z,35.67
2019-04-06T01:26:06.951Z,36.87
2019-04-06T01:28:34.118Z,35.17
2019-04-06T01:31:05.417Z,36.13
2019-04-06T01:33:37.346Z,37.93
2019-04-06T01:36:08.604Z,35.90
2019-04-06T01:38:40.513Z,38.17
2019-04-06T01:41:12.362Z,38.03
2019-04-06T01:43:44.232Z,35.80
2019-04-06T01:46:15.903Z,37.80
2019-04-06T01:48:47.616Z,37.73
2019-04-06T01:51:22.561Z,38.87
2019-04-06T01:53:54.671Z,37.97
2019-04-06T01:56:26.328Z,37.37
2019-04-06T01:58:58.437Z,37.33
2019-04-06T02:01:52.147Z,37.37
2019-04-06T02:04:23.680Z,38.40
2019-04-06T02:06:54.603Z,39.10
2019-04-06T02:09:27.287Z,40.57
2019-04-06T02:11:58.734Z,36.70
2019-04-06T02:14:30.200Z,37.60
2019-04-06T02:17:01.664Z,38.27
2019-04-06T02:19:34.416Z,39.17
2019-04-06T02:22:06.642Z,39.03
2019-04-06T02:24:38.611Z,36.13
2019-04-06T02:27:12.729Z,38.63
2019-04-06T02:29:45.236Z,38.07
2019-04-06T02:32:32.271Z,36.37
2019-04-06T02:35:23.718Z,38.30
2019-04-06T02:38:22.956Z,37.20
2019-04-06T02:41:09.140Z,34.77
2019-04-06T02:43:41.184Z,37.50
2019-04-06T02:46:13.117Z,37.03
2019-04-06T02:48:45.314Z,39.23
2019-04-06T02:51:16.799Z,37.93
2019-04-06T02:53:49.148Z,38.43
2019-04-06T02:56:21.957Z,36.77
2019-04-06T02:58:53.693Z,37.50
2019-04-06T03:01:24.961Z,36.93
2019-04-06T03:03:56.151Z,38.53
2019-04-06T03:06:28.179Z,38.80
2019-04-06T03:08:59.296Z,37.80
2019-04-06T03:11:33.316Z,39.30
2019-04-06T03:14:04.605Z,39.30
2019-04-06T03:16:37.368Z,39.40
2019-04-06T03:19:10.503Z,38.03
2019-04-06T03:21:41.796Z,37.80
2019-04-06T03:24:13.846Z,36.17
2019-04-06T03:26:59.271Z,37.73
2019-04-06T03:29:17.945Z,38.13
2019-04-06T03:31:49.709Z,38.20
2019-04-06T03:34:22.450Z,35.80
2019-04-06T03:36:54.841Z,38.90
2019-04-06T03:39:26.063Z,39.80
2019-04-06T03:42:00.413Z,43.10
2019-04-06T03:44:31.055Z,34.07
2019-04-06T03:47:02.590Z,38.43
2019-04-06T03:49:35.709Z,35.97
2019-04-06T03:52:07.750Z,36.53
2019-04-06T03:54:39.050Z,38.97
2019-04-06T03:57:16.074Z,36.57
2019-04-06T03:59:43.994Z,41.03
2019-04-06T04:02:15.825Z,37.83
2019-04-06T04:04:47.146Z,37.07
2019-04-06T04:07:18.536Z,35.00
2019-04-06T04:09:49.515Z,35.10
2019-04-06T04:12:21.323Z,34.93
2019-04-06T04:14:53.753Z,36.93
2019-04-06T04:17:25.515Z,35.30
2019-04-06T04:19:57.048Z,35.63
2019-04-06T04:22:28.849Z,34.10
2019-04-06T04:25:00.517Z,37.47
2019-04-06T04:27:32.352Z,34.83
2019-04-06T04:30:04.209Z,36.30
2019-04-06T04:32:35.738Z,35.60
2019-04-06T04:35:06.915Z,39.60
2019-04-06T04:37:41.432Z,35.83
2019-04-06T04:40:13.043Z,35.67
2019-04-06T04:42:44.999Z,34.00
2019-04-06T04:45:16.870Z,35.73
2019-04-06T04:47:50.125Z,36.50
2019-04-06T04:50:21.319Z,38.23
2019-04-06T04:52:52.954Z,36.83
2019-04-06T04:55:24.835Z,36.87
2019-04-06T04:57:59.050Z,36.13
2019-04-06T05:00:31.135Z,42.17
2019-04-06T05:03:02.928Z,37.87
2019-04-06T05:05:33.739Z,37.27
2019-04-06T05:08:05.715Z,36.37
2019-04-06T05:10:40.357Z,37.67
2019-04-06T05:13:14.749Z,36.40
2019-04-06T05:16:21.942Z,38.17
2019-04-06T05:18:54.321Z,40.80
2019-04-06T05:21:26.495Z,41.90
2019-04-06T05:23:57.948Z,41.03
2019-04-06T05:26:37.470Z,40.67
2019-04-06T05:29:02.747Z,41.03
2019-04-06T05:31:34.533Z,38.40
2019-04-06T05:34:07.409Z,37.80
2019-04-06T05:36:38.954Z,39.67
2019-04-06T05:39:10.595Z,38.50
2019-04-06T05:41:42.169Z,42.73
2019-04-06T05:44:14.477Z,38.00
2019-04-06T05:46:45.986Z,39.43
2019-04-06T05:49:17.602Z,40.00
2019-04-06T05:51:49.930Z,41.50
2019-04-06T05:54:22.232Z,39.33
2019-04-06T05:56:53.909Z,41.60
2019-04-06T05:59:26.185Z,42.33
2019-04-06T06:01:57.850Z,43.03
2019-04-06T06:04:30.031Z,38.97
2019-04-06T06:07:02.005Z,38.70
2019-04-06T06:09:33.427Z,40.07
2019-04-06T06:12:05.719Z,37.00
2019-04-06T06:14:36.877Z,37.83
2019-04-06T06:17:08.255Z,40.43
2019-04-06T06:19:40.275Z,38.73
2019-04-06T06:22:11.789Z,41.67
2019-04-06T06:24:43.293Z,38.03
2019-04-06T06:27:15.669Z,38.40
2019-04-06T06:29:47.322Z,37.43
2019-04-06T06:32:19.094Z,39.50
2019-04-06T06:34:51.558Z,37.10
2019-04-06T06:37:23.791Z,37.00
2019-04-06T06:39:56.552Z,39.17
2019-04-06T06:42:27.874Z,37.40
2019-04-06T06:44:59.396Z,36.33
2019-04-06T06:47:30.956Z,37.87
2019-04-06T06:50:04.245Z,38.57
2019-04-06T06:52:36.101Z,43.63
2019-04-06T06:55:08.179Z,37.37
2019-04-06T06:57:39.549Z,37.47
2019-04-06T07:00:10.469Z,38.47
2019-04-06T07:02:41.907Z,38.10
2019-04-06T07:05:14.594Z,39.00
2019-04-06T07:07:45.988Z,38.13
2019-04-06T07:10:18.377Z,36.77
2019-04-06T07:12:49.416Z,34.03
2019-04-06T07:15:20.726Z,36.17
2019-04-06T07:17:51.763Z,37.27
2019-04-06T07:20:23.634Z,35.87
2019-04-06T07:22:54.812Z,37.20
2019-04-06T07:25:26.606Z,34.77
2019-04-06T07:27:57.767Z,36.77
2019-04-06T07:30:29.607Z,37.10
2019-04-06T07:33:01.166Z,35.03
2019-04-06T07:35:32.688Z,33.80
2019-04-06T07:38:03.983Z,37.13
2019-04-06T07:40:36.309Z,36.87
2019-04-06T07:43:07.973Z,35.67
2019-04-06T07:45:39.273Z,35.67
2019-04-06T07:48:11.108Z,34.70
2019-04-06T07:50:42.829Z,34.50
2019-04-06T07:53:13.823Z,36.70
2019-04-06T07:55:45.701Z,38.87
2019-04-06T07:58:17.795Z,35.73
2019-04-06T08:00:49.699Z,35.73
2019-04-06T08:03:21.873Z,36.30
2019-04-06T08:05:52.799Z,35.13
2019-04-06T08:08:24.658Z,36.33
2019-04-06T08:10:55.963Z,34.37
2019-04-06T08:13:27.898Z,34.73
2019-04-06T08:15:59.208Z,35.73
2019-04-06T08:18:30.294Z,32.23
2019-04-06T08:21:01.525Z,34.23
2019-04-06T08:23:33.802Z,34.10
2019-04-06T08:26:05.287Z,34.57
2019-04-06T08:28:37.566Z,34.67
2019-04-06T08:31:09.178Z,35.43
2019-04-06T08:33:40.878Z,35.70
2019-04-06T08:36:12.664Z,35.67
2019-04-06T08:38:47.973Z,34.77
2019-04-06T08:41:19.676Z,35.80
2019-04-06T08:43:51.480Z,35.40
2019-04-06T08:46:23.047Z,36.00
2019-04-06T08:48:55.106Z,36.50
2019-04-06T08:51:29.389Z,35.60
2019-04-06T08:54:01.077Z,35.07
2019-04-06T08:56:32.557Z,35.30
2019-04-06T08:59:11.577Z,36.97
2019-04-06T09:01:36.907Z,36.20
2019-04-06T09:04:09.070Z,35.77
2019-04-06T09:06:40.178Z,35.73
2019-04-06T09:09:11.676Z,37.23
2019-04-06T09:11:43.951Z,37.27
2019-04-06T09:14:15.463Z,37.50
2019-04-06T09:16:47.636Z,35.90
2019-04-06T09:19:19.622Z,59.37
2019-04-06T09:21:51.284Z,37.30
2019-04-06T09:24:22.758Z,35.73
2019-04-06T09:26:54.139Z,36.93
2019-04-06T09:29:25.921Z,35.30
2019-04-06T09:31:57.478Z,37.40
2019-04-06T09:34:31.075Z,37.33
2019-04-06T09:37:01.846Z,35.70
2019-04-06T09:39:33.689Z,35.57
2019-04-06T09:42:05.532Z,35.83
2019-04-06T09:44:58.191Z,36.37
2019-04-06T09:47:57.642Z,37.57
2019-04-06T09:50:46.748Z,34.40
2019-04-06T09:53:49.128Z,33.53
2019-04-06T09:56:39.477Z,31.90
2019-04-06T09:59:35.323Z,34.70
2019-04-06T10:02:32.649Z,36.73
2019-04-06T10:05:21.808Z,34.90
2019-04-06T10:08:18.304Z,36.47
2019-04-06T10:11:21.292Z,34.73
2019-04-06T10:14:12.102Z,34.83
2019-04-06T10:17:01.261Z,35.87
2019-04-06T10:19:50.243Z,34.17
2019-04-06T10:22:40.220Z,36.27
2019-04-06T10:25:28.829Z,33.70
2019-04-06T10:28:10.473Z,32.87
2019-04-06T10:30:54.017Z,34.83
2019-04-06T10:33:38.236Z,35.30
2019-04-06T10:36:42.293Z,35.83
2019-04-06T10:39:27.755Z,35.70
2019-04-06T10:42:21.507Z,32.20
2019-04-06T10:45:25.330Z,31.80
2019-04-06T10:48:15.764Z,33.00
2019-04-06T10:51:06.373Z,34.93
2019-04-06T10:53:55.791Z,33.67
2019-04-06T10:56:39.098Z,34.17
2019-04-06T11:00:00.319Z,35.90
2019-04-06T11:02:38.113Z,34.60
2019-04-06T11:05:24.977Z,34.53
2019-04-06T11:08:13.910Z,35.90
2019-04-06T11:11:03.994Z,35.47
2019-04-06T11:13:52.213Z,38.03
2019-04-06T11:17:01.044Z,48.17
2019-04-06T11:19:59.403Z,36.20
2019-04-06T11:22:58.624Z,34.67
2019-04-06T11:25:39.360Z,33.50
2019-04-06T11:28:40.603Z,34.20
2019-04-06T11:31:34.394Z,35.47
2019-04-06T11:34:23.066Z,33.30
2019-04-06T11:37:11.431Z,33.70
2019-04-06T11:40:08.908Z,34.40
2019-04-06T11:42:57.447Z,33.70
2019-04-06T11:45:46.645Z,34.47
2019-04-06T11:48:30.910Z,36.80
2019-04-06T11:51:27.092Z,34.60
2019-04-06T11:54:19.755Z,32.53
2019-04-06T11:57:13.522Z,35.20
2019-04-06T12:00:03.564Z,37.63
2019-04-06T12:02:54.781Z,35.27
2019-04-06T12:05:51.509Z,36.47
2019-04-06T12:08:41.740Z,36.93
2019-04-06T12:11:35.009Z,33.90
2019-04-06T12:14:18.952Z,36.17
2019-04-06T12:17:01.452Z,35.03
2019-04-06T12:19:51.872Z,35.80
2019-04-06T12:22:45.845Z,38.43
2019-04-06T12:25:25.861Z,37.23
2019-04-06T12:28:21.368Z,36.07
2019-04-06T12:31:14.114Z,32.90
2019-04-06T12:34:04.014Z,33.23
2019-04-06T12:36:51.638Z,32.20
2019-04-06T12:39:52.516Z,33.80
2019-04-06T12:42:26.635Z,34.07
2019-04-06T12:45:20.598Z,32.30
2019-04-06T12:48:06.685Z,33.07
2019-04-06T12:50:50.524Z,32.70
2019-04-06T12:53:49.907Z,31.97
2019-04-06T12:56:50.745Z,32.57
2019-04-06T12:59:47.281Z,32.30
2019-04-06T13:02:39.756Z,34.73
2019-04-06T13:05:38.865Z,36.63
2019-04-06T13:08:29.833Z,33.50
2019-04-06T13:11:19.703Z,33.33
2019-04-06T13:14:02.323Z,33.17
2019-04-06T13:16:52.891Z,31.70
2019-04-06T13:19:43.761Z,31.83
2019-04-06T13:22:23.989Z,35.37
2019-04-06T13:25:13.467Z,30.73
2019-04-06T13:28:02.216Z,31.73
2019-04-06T13:31:01.995Z,30.60
2019-04-06T13:33:46.054Z,29.97
2019-04-06T13:36:28.983Z,31.97
2019-04-06T13:39:34.377Z,30.87
2019-04-06T13:42:20.383Z,31.30
2019-04-06T13:45:09.716Z,29.33
2019-04-06T13:47:58.373Z,32.13
2019-04-06T13:50:48.691Z,30.50
2019-04-06T13:53:42.928Z,31.57
2019-04-06T13:56:26.431Z,29.43
2019-04-06T13:59:26.480Z,31.47
2019-04-06T14:02:17.554Z,31.07
2019-04-06T14:05:08.675Z,31.00
2019-04-06T14:07:54.413Z,31.80
2019-04-06T14:10:44.338Z,30.37
2019-04-06T14:13:29.287Z,31.13
2019-04-06T14:16:19.327Z,29.10
2019-04-06T14:19:01.855Z,27.50
2019-04-06T14:21:55.409Z,31.70
2019-04-06T14:24:46.670Z,31.57
2019-04-06T14:27:30.116Z,29.80
2019-04-06T14:30:20.646Z,29.87
2019-04-06T14:33:03.257Z,30.10
2019-04-06T14:35:52.971Z,29.57
2019-04-06T14:38:37.900Z,31.40
2019-04-06T14:41:43.221Z,29.40
2019-04-06T14:44:43.472Z,29.90
2019-04-06T14:47:52.405Z,30.67
2019-04-06T14:50:46.379Z,29.73
2019-04-06T14:53:40.306Z,30.50
2019-04-06T14:56:33.514Z,31.43
2019-04-06T14:59:20.748Z,29.47
2019-04-06T15:02:14.068Z,29.43
2019-04-06T15:05:04.493Z,28.77
2019-04-06T15:07:50.559Z,30.53
2019-04-06T15:10:40.668Z,29.50
2019-04-06T15:13:23.629Z,29.33
2019-04-06T15:16:14.704Z,28.63
2019-04-06T15:18:55.948Z,29.93
2019-04-06T15:21:52.729Z,29.37
2019-04-06T15:25:02.373Z,31.63
2019-04-06T15:27:41.851Z,32.40
2019-04-06T15:30:31.793Z,33.17
2019-04-06T15:33:21.989Z,32.23
2019-04-06T15:36:14.979Z,35.03
2019-04-06T15:38:54.058Z,36.77
2019-04-06T15:41:39.240Z,34.57
2019-04-06T15:44:29.020Z,33.07
2019-04-06T15:47:09.318Z,30.93
2019-04-06T15:49:59.159Z,32.27
2019-04-06T15:52:47.945Z,30.93
2019-04-06T15:55:42.406Z,30.80
2019-04-06T15:58:26.124Z,31.80
2019-04-06T16:01:14.653Z,29.57
2019-04-06T16:04:20.640Z,30.17
2019-04-06T16:07:11.636Z,31.20
2019-04-06T16:10:06.292Z,30.20
2019-04-06T16:12:55.799Z,28.30
2019-04-06T16:15:40.302Z,29.00
2019-04-06T16:18:30.884Z,29.03
2019-04-06T16:21:24.585Z,30.13
2019-04-06T16:24:20.921Z,29.30
2019-04-06T16:27:01.534Z,36.10
2019-04-06T16:29:52.719Z,30.93
2019-04-06T16:32:55.835Z,27.63
2019-04-06T16:35:45.294Z,28.20
2019-04-06T16:38:25.337Z,37.67
2019-04-06T16:41:15.775Z,42.77
2019-04-06T16:43:57.821Z,43.93
2019-04-06T16:46:47.450Z,43.43
2019-04-06T16:49:36.845Z,43.67
2019-04-06T16:52:28.852Z,43.07
2019-04-06T16:55:11.552Z,41.90
2019-04-06T16:58:10.835Z,43.03
2019-04-06T17:01:02.082Z,40.07
2019-04-06T17:04:11.767Z,39.90
2019-04-06T17:07:03.557Z,40.33
2019-04-06T17:09:53.261Z,41.03
2019-04-06T17:12:54.698Z,36.60
2019-04-06T17:15:56.140Z,34.23
2019-04-06T17:18:47.727Z,32.47
2019-04-06T17:21:31.962Z,31.93
2019-04-06T17:24:27.049Z,30.07
2019-04-06T17:27:21.040Z,32.17
2019-04-06T17:30:11.086Z,29.73
2019-04-06T17:32:58.413Z,28.87
2019-04-06T17:35:37.434Z,27.17
2019-04-06T17:38:31.869Z,20.37
2019-04-06T17:41:24.996Z,16.70
2019-04-06T17:44:26.938Z,19.30
2019-04-06T17:47:19.073Z,17.00
2019-04-06T17:50:13.528Z,16.53
2019-04-06T17:53:20.145Z,18.43
2019-04-06T17:56:15.875Z,16.23
2019-04-06T17:59:16.515Z,15.30
2019-04-06T18:02:07.638Z,19.67
2019-04-06T18:04:57.587Z,19.00
2019-04-06T18:07:48.904Z,19.07
2019-04-06T18:10:30.244Z,17.97
2019-04-06T18:13:23.784Z,13.80
2019-04-06T18:15:56.149Z,14.00
2019-04-06T18:18:29.142Z,14.63
2019-04-06T18:21:01.665Z,14.60
2019-04-06T18:23:35.597Z,15.23
2019-04-06T18:26:08.049Z,14.60
2019-04-06T18:28:40.793Z,16.30
2019-04-06T18:31:23.052Z,15.17
2019-04-06T18:33:56.992Z,16.00
2019-04-06T18:36:42.163Z,17.00
2019-04-06T18:39:15.182Z,16.33
2019-04-06T18:41:47.274Z,17.33
2019-04-06T18:44:20.010Z,16.57
2019-04-06T18:46:52.354Z,17.50
2019-04-06T18:49:25.446Z,19.17
2019-04-06T18:51:57.528Z,18.57
2019-04-06T18:54:29.571Z,19.70
2019-04-06T18:57:01.294Z,18.70
2019-04-06T18:59:34.144Z,18.00
2019-04-06T19:02:07.456Z,17.23
2019-04-06T19:04:41.131Z,17.80
2019-04-06T19:07:14.186Z,18.70
2019-04-06T19:09:47.385Z,17.03
2019-04-06T19:12:21.135Z,17.83
2019-04-06T19:14:53.550Z,18.27
2019-04-06T19:17:25.946Z,19.57
2019-04-06T19:19:58.428Z,19.10
2019-04-06T19:22:30.786Z,20.33
2019-04-06T19:25:03.771Z,21.80
2019-04-06T19:27:36.392Z,19.90
2019-04-06T19:30:11.049Z,20.80
2019-04-06T19:32:43.976Z,19.17
2019-04-06T19:35:16.990Z,19.30
2019-04-06T19:37:50.140Z,19.80
2019-04-06T19:40:23.606Z,18.40
2019-04-06T19:42:56.673Z,20.00
2019-04-06T19:45:28.834Z,19.90
2019-04-06T19:48:01.078Z,19.80
2019-04-06T19:50:35.334Z,20.13
2019-04-06T19:53:08.086Z,20.10
2019-04-06T19:55:41.032Z,23.07
2019-04-06T19:58:13.755Z,20.40
2019-04-06T20:00:46.903Z,20.03
2019-04-06T20:03:19.511Z,21.73
2019-04-06T20:05:52.403Z,21.60
2019-04-06T20:08:28.210Z,21.13
2019-04-06T20:11:02.115Z,20.60
2019-04-06T20:13:35.160Z,20.67
2019-04-06T20:16:07.789Z,21.40
2019-04-06T20:18:41.595Z,22.70
2019-04-06T20:21:14.432Z,20.20
2019-04-06T20:23:47.400Z,22.70
2019-04-06T20:26:20.750Z,22.70
2019-04-06T20:28:52.925Z,24.07
2019-04-06T20:31:25.113Z,22.00
2019-04-06T20:33:57.667Z,23.07
2019-04-06T20:36:29.569Z,20.80
2019-04-06T20:39:03.038Z,22.50
2019-04-06T20:41:36.189Z,22.13
2019-04-06T20:44:07.986Z,26.07
2019-04-06T20:46:40.549Z,21.63
2019-04-06T20:49:12.166Z,23.20
2019-04-06T20:51:44.516Z,22.83
2019-04-06T20:54:17.965Z,24.57
2019-04-06T20:56:56.218Z,44.30
2019-04-06T20:59:24.433Z,38.20
2019-04-06T21:01:57.021Z,52.27
2019-04-06T21:04:29.875Z,26.00
2019-04-06T21:07:02.494Z,34.67
2019-04-06T21:09:35.760Z,45.73
2019-04-06T21:12:09.413Z,49.07
2019-04-06T21:14:41.475Z,25.73
2019-04-06T21:17:14.099Z,24.03
2019-04-06T21:19:45.977Z,24.37
2019-04-06T21:22:17.786Z,36.13
2019-04-06T21:24:50.502Z,31.60
2019-04-06T21:27:21.728Z,40.27
2019-04-06T21:29:52.879Z,24.13
2019-04-06T21:32:23.992Z,27.53
2019-04-06T21:34:58.994Z,24.53
2019-04-06T21:37:30.377Z,32.73
2019-04-06T21:40:02.327Z,60.97
2019-04-06T21:42:33.769Z,82.47
2019-04-06T21:45:06.289Z,33.53
2019-04-06T21:47:38.697Z,28.77
2019-04-06T21:50:11.120Z,31.20
2019-04-06T21:52:42.758Z,29.13
2019-04-06T21:55:16.269Z,32.70
2019-04-06T21:57:48.373Z,35.93
2019-04-06T22:00:40.029Z,36.07
2019-04-06T22:03:11.184Z,34.67
2019-04-06T22:05:43.783Z,35.53
2019-04-06T22:08:14.724Z,37.77
2019-04-06T22:10:47.462Z,40.10
2019-04-06T22:13:19.486Z,36.10
2019-04-06T22:15:50.705Z,35.43
2019-04-06T22:18:22.082Z,35.83
2019-04-06T22:20:53.211Z,34.20
2019-04-06T22:23:39.855Z,35.17
2019-04-06T22:26:03.185Z,34.27
2019-04-06T22:28:37.564Z,35.57
2019-04-06T22:31:12.163Z,36.33
2019-04-06T22:33:48.158Z,37.30
2019-04-06T22:36:23.274Z,35.77
2019-04-06T22:38:56.392Z,34.27
2019-04-06T22:41:30.220Z,36.20
2019-04-06T22:44:05.870Z,35.37
2019-04-06T22:46:38.968Z,44.13
2019-04-06T22:49:13.338Z,38.50
2019-04-06T22:51:44.317Z,41.07
2019-04-06T22:54:17.341Z,38.70
2019-04-06T22:56:49.569Z,36.53
2019-04-06T22:59:22.181Z,32.43
2019-04-06T23:01:54.038Z,25.47
2019-04-06T23:04:32.024Z,27.40
2019-04-06T23:07:15.771Z,24.17
2019-04-06T23:09:48.210Z,21.50
2019-04-06T23:12:21.289Z,22.60
2019-04-06T23:14:53.791Z,22.80
2019-04-06T23:17:27.325Z,22.23
2019-04-06T23:19:59.022Z,18.77
2019-04-06T23:22:31.738Z,17.73
2019-04-06T23:25:02.892Z,15.87
2019-04-06T23:27:35.349Z,16.10
2019-04-06T23:30:07.624Z,13.90
2019-04-06T23:32:38.719Z,16.00
2019-04-06T23:35:11.963Z,14.97
2019-04-06T23:37:43.758Z,14.77
2019-04-06T23:40:15.548Z,14.33
2019-04-06T23:42:48.685Z,13.27
2019-04-06T23:45:20.751Z,13.80
2019-04-06T23:47:52.677Z,12.43
2019-04-06T23:50:24.785Z,12.33
2019-04-06T23:52:56.262Z,14.57
2019-04-06T23:55:28.196Z,12.37
2019-04-06T23:57:59.856Z,13.50
